sensor_id;sensor_type;location;lat;lon;timestamp;P1;durP1;ratioP1;P2;durP2;ratioP2
14137;SDS011;8199;51.310;9.466;2023-07-29T00:00:44;2.95;;;2.65;;
14137;SDS011;8199;51.310;9.466;2023-07-29T00:03:09;3.13;;;2.70;;
14137;SDS011;8199;51.310;9.466;2023-07-29T00:05:36;2.90;;;2.40;;
14137;SDS011;8199;51.310;9.466;2023-07-29T00:08:02;3.67;;;2.75;;
14137;SDS011;8199;51.310;9.466;2023-07-29T00:10:28;2.92;;;2.67;;
14137;SDS011;8199;51.310;9.466;2023-07-29T00:12:54;3.58;;;2.63;;
14137;SDS011;8199;51.310;9.466;2023-07-29T00:15:19;3.05;;;2.80;;
14137;SDS011;8199;51.310;9.466;2023-07-29T00:17:45;2.70;;;2.50;;
14137;SDS011;8199;51.310;9.466;2023-07-29T00:20:10;2.67;;;2.38;;
14137;SDS011;8199;51.310;9.466;2023-07-29T00:22:36;3.83;;;2.63;;
14137;SDS011;8199;51.310;9.466;2023-07-29T00:25:01;3.38;;;2.60;;
14137;SDS011;8199;51.310;9.466;2023-07-29T00:27:27;3.90;;;2.65;;
14137;SDS011;8199;51.310;9.466;2023-07-29T00:29:52;3.05;;;2.67;;
14137;SDS011;8199;51.310;9.466;2023-07-29T00:32:18;3.17;;;2.58;;
14137;SDS011;8199;51.310;9.466;2023-07-29T00:34:44;2.70;;;2.50;;
14137;SDS011;8199;51.310;9.466;2023-07-29T00:37:09;3.00;;;2.70;;
14137;SDS011;8199;51.310;9.466;2023-07-29T00:39:35;4.97;;;2.75;;
14137;SDS011;8199;51.310;9.466;2023-07-29T00:42:02;4.03;;;2.50;;
14137;SDS011;8199;51.310;9.466;2023-07-29T00:44:28;2.85;;;2.60;;
14137;SDS011;8199;51.310;9.466;2023-07-29T00:46:54;3.90;;;2.60;;
14137;SDS011;8199;51.310;9.466;2023-07-29T00:49:20;3.58;;;2.60;;
14137;SDS011;8199;51.310;9.466;2023-07-29T00:51:46;3.38;;;2.58;;
14137;SDS011;8199;51.310;9.466;2023-07-29T00:54:12;3.83;;;2.47;;
14137;SDS011;8199;51.310;9.466;2023-07-29T00:56:38;2.40;;;2.20;;
14137;SDS011;8199;51.310;9.466;2023-07-29T00:59:05;2.83;;;2.30;;
14137;SDS011;8199;51.310;9.466;2023-07-29T01:01:31;3.28;;;2.45;;
14137;SDS011;8199;51.310;9.466;2023-07-29T01:03:57;3.90;;;2.40;;
14137;SDS011;8199;51.310;9.466;2023-07-29T01:07:27;4.43;;;2.55;;
14137;SDS011;8199;51.310;9.466;2023-07-29T01:12:33;5.78;;;2.47;;
14137;SDS011;8199;51.310;9.466;2023-07-29T01:18:08;3.75;;;2.70;;
14137;SDS011;8199;51.310;9.466;2023-07-29T01:20:40;4.18;;;3.10;;
14137;SDS011;8199;51.310;9.466;2023-07-29T01:23:10;3.47;;;2.60;;
14137;SDS011;8199;51.310;9.466;2023-07-29T01:25:36;3.72;;;2.42;;
14137;SDS011;8199;51.310;9.466;2023-07-29T01:28:02;5.13;;;3.00;;
14137;SDS011;8199;51.310;9.466;2023-07-29T01:30:37;4.80;;;3.35;;
14137;SDS011;8199;51.310;9.466;2023-07-29T01:38:38;3.67;;;2.60;;
14137;SDS011;8199;51.310;9.466;2023-07-29T01:41:06;4.03;;;2.47;;
14137;SDS011;8199;51.310;9.466;2023-07-29T01:43:33;7.05;;;3.03;;
14137;SDS011;8199;51.310;9.466;2023-07-29T01:46:00;5.78;;;2.58;;
14137;SDS011;8199;51.310;9.466;2023-07-29T01:48:26;5.25;;;3.70;;
14137;SDS011;8199;51.310;9.466;2023-07-29T01:50:52;4.18;;;3.58;;
14137;SDS011;8199;51.310;9.466;2023-07-29T01:53:18;7.20;;;3.47;;
14137;SDS011;8199;51.310;9.466;2023-07-29T01:55:43;4.63;;;3.40;;
14137;SDS011;8199;51.310;9.466;2023-07-29T01:58:10;4.80;;;2.90;;
14137;SDS011;8199;51.310;9.466;2023-07-29T02:00:35;5.28;;;3.05;;
14137;SDS011;8199;51.310;9.466;2023-07-29T02:03:01;5.18;;;2.67;;
14137;SDS011;8199;51.310;9.466;2023-07-29T02:05:27;5.03;;;2.90;;
14137;SDS011;8199;51.310;9.466;2023-07-29T02:07:52;4.20;;;2.70;;
14137;SDS011;8199;51.310;9.466;2023-07-29T02:10:18;3.10;;;2.80;;
14137;SDS011;8199;51.310;9.466;2023-07-29T02:12:44;4.40;;;2.70;;
14137;SDS011;8199;51.310;9.466;2023-07-29T02:15:09;3.97;;;2.63;;
14137;SDS011;8199;51.310;9.466;2023-07-29T02:17:35;5.93;;;2.63;;
14137;SDS011;8199;51.310;9.466;2023-07-29T02:20:01;6.97;;;2.60;;
14137;SDS011;8199;51.310;9.466;2023-07-29T02:22:28;4.20;;;2.53;;
14137;SDS011;8199;51.310;9.466;2023-07-29T02:24:54;4.20;;;2.42;;
14137;SDS011;8199;51.310;9.466;2023-07-29T02:27:20;3.53;;;2.53;;
14137;SDS011;8199;51.310;9.466;2023-07-29T02:29:45;4.15;;;2.78;;
14137;SDS011;8199;51.310;9.466;2023-07-29T02:32:11;2.88;;;2.40;;
14137;SDS011;8199;51.310;9.466;2023-07-29T02:34:36;4.97;;;2.60;;
14137;SDS011;8199;51.310;9.466;2023-07-29T02:37:02;4.25;;;2.92;;
14137;SDS011;8199;51.310;9.466;2023-07-29T02:39:28;4.97;;;2.30;;
14137;SDS011;8199;51.310;9.466;2023-07-29T02:41:53;3.83;;;2.55;;
14137;SDS011;8199;51.310;9.466;2023-07-29T02:44:20;3.58;;;3.08;;
14137;SDS011;8199;51.310;9.466;2023-07-29T02:46:46;5.30;;;3.35;;
14137;SDS011;8199;51.310;9.466;2023-07-29T02:49:12;4.22;;;3.08;;
14137;SDS011;8199;51.310;9.466;2023-07-29T02:51:37;4.32;;;3.38;;
14137;SDS011;8199;51.310;9.466;2023-07-29T02:54:03;5.05;;;3.58;;
14137;SDS011;8199;51.310;9.466;2023-07-29T02:56:28;5.00;;;3.20;;
14137;SDS011;8199;51.310;9.466;2023-07-29T02:58:55;5.43;;;3.30;;
14137;SDS011;8199;51.310;9.466;2023-07-29T03:01:22;5.63;;;3.55;;
14137;SDS011;8199;51.310;9.466;2023-07-29T03:03:50;3.83;;;3.00;;
14137;SDS011;8199;51.310;9.466;2023-07-29T03:06:15;4.45;;;3.25;;
14137;SDS011;8199;51.310;9.466;2023-07-29T03:08:41;4.45;;;2.92;;
14137;SDS011;8199;51.310;9.466;2023-07-29T03:11:08;4.53;;;3.15;;
14137;SDS011;8199;51.310;9.466;2023-07-29T03:13:38;5.45;;;3.58;;
14137;SDS011;8199;51.310;9.466;2023-07-29T03:16:06;2.70;;;2.50;;
14137;SDS011;8199;51.310;9.466;2023-07-29T03:18:33;5.90;;;3.20;;
14137;SDS011;8199;51.310;9.466;2023-07-29T03:20:59;4.97;;;3.10;;
14137;SDS011;8199;51.310;9.466;2023-07-29T03:23:24;4.38;;;2.60;;
14137;SDS011;8199;51.310;9.466;2023-07-29T03:25:50;6.63;;;3.30;;
14137;SDS011;8199;51.310;9.466;2023-07-29T03:28:21;3.90;;;3.10;;
14137;SDS011;8199;51.310;9.466;2023-07-29T03:30:49;3.30;;;2.85;;
14137;SDS011;8199;51.310;9.466;2023-07-29T03:33:14;4.05;;;2.90;;
14137;SDS011;8199;51.310;9.466;2023-07-29T03:35:40;8.50;;;3.35;;
14137;SDS011;8199;51.310;9.466;2023-07-29T03:38:09;6.75;;;3.17;;
14137;SDS011;8199;51.310;9.466;2023-07-29T03:40:35;4.95;;;3.22;;
14137;SDS011;8199;51.310;9.466;2023-07-29T03:43:01;3.28;;;2.95;;
14137;SDS011;8199;51.310;9.466;2023-07-29T03:45:26;4.53;;;3.10;;
14137;SDS011;8199;51.310;9.466;2023-07-29T03:47:52;3.40;;;3.03;;
14137;SDS011;8199;51.310;9.466;2023-07-29T03:50:17;4.60;;;3.03;;
14137;SDS011;8199;51.310;9.466;2023-07-29T03:52:43;3.42;;;2.97;;
14137;SDS011;8199;51.310;9.466;2023-07-29T03:55:09;5.22;;;3.33;;
14137;SDS011;8199;51.310;9.466;2023-07-29T03:57:34;3.55;;;3.20;;
14137;SDS011;8199;51.310;9.466;2023-07-29T04:00:00;4.93;;;3.10;;
14137;SDS011;8199;51.310;9.466;2023-07-29T04:02:25;3.72;;;3.33;;
14137;SDS011;8199;51.310;9.466;2023-07-29T04:04:51;3.42;;;3.08;;
14137;SDS011;8199;51.310;9.466;2023-07-29T04:07:16;3.95;;;3.03;;
14137;SDS011;8199;51.310;9.466;2023-07-29T04:09:42;3.55;;;3.25;;
14137;SDS011;8199;51.310;9.466;2023-07-29T04:12:08;4.65;;;3.08;;
14137;SDS011;8199;51.310;9.466;2023-07-29T04:14:34;4.60;;;3.40;;
14137;SDS011;8199;51.310;9.466;2023-07-29T04:17:00;3.60;;;3.08;;
14137;SDS011;8199;51.310;9.466;2023-07-29T04:19:26;4.38;;;2.92;;
14137;SDS011;8199;51.310;9.466;2023-07-29T04:21:51;4.00;;;3.42;;
14137;SDS011;8199;51.310;9.466;2023-07-29T04:24:17;4.50;;;3.03;;
14137;SDS011;8199;51.310;9.466;2023-07-29T04:26:45;3.30;;;3.00;;
14137;SDS011;8199;51.310;9.466;2023-07-29T04:29:11;3.03;;;2.83;;
14137;SDS011;8199;51.310;9.466;2023-07-29T04:31:37;4.07;;;2.90;;
14137;SDS011;8199;51.310;9.466;2023-07-29T04:34:02;3.05;;;2.67;;
14137;SDS011;8199;51.310;9.466;2023-07-29T04:36:29;3.00;;;2.70;;
14137;SDS011;8199;51.310;9.466;2023-07-29T04:38:55;3.63;;;3.08;;
14137;SDS011;8199;51.310;9.466;2023-07-29T04:41:20;3.67;;;2.88;;
14137;SDS011;8199;51.310;9.466;2023-07-29T04:43:46;3.45;;;2.97;;
14137;SDS011;8199;51.310;9.466;2023-07-29T04:46:11;3.17;;;2.88;;
14137;SDS011;8199;51.310;9.466;2023-07-29T04:48:37;3.92;;;3.22;;
14137;SDS011;8199;51.310;9.466;2023-07-29T04:51:03;4.50;;;3.03;;
14137;SDS011;8199;51.310;9.466;2023-07-29T04:53:28;3.30;;;3.03;;
14137;SDS011;8199;51.310;9.466;2023-07-29T04:55:54;4.68;;;2.80;;
14137;SDS011;8199;51.310;9.466;2023-07-29T04:58:19;3.70;;;2.90;;
14137;SDS011;8199;51.310;9.466;2023-07-29T05:00:46;5.40;;;3.13;;
14137;SDS011;8199;51.310;9.466;2023-07-29T05:03:12;3.60;;;2.95;;
14137;SDS011;8199;51.310;9.466;2023-07-29T05:05:38;3.92;;;3.63;;
14137;SDS011;8199;51.310;9.466;2023-07-29T05:08:03;4.95;;;3.40;;
14137;SDS011;8199;51.310;9.466;2023-07-29T05:10:29;3.25;;;3.05;;
14137;SDS011;8199;51.310;9.466;2023-07-29T05:12:54;6.90;;;3.10;;
14137;SDS011;8199;51.310;9.466;2023-07-29T05:15:20;5.35;;;2.95;;
14137;SDS011;8199;51.310;9.466;2023-07-29T05:17:45;4.72;;;2.78;;
14137;SDS011;8199;51.310;9.466;2023-07-29T05:20:11;4.35;;;2.50;;
14137;SDS011;8199;51.310;9.466;2023-07-29T05:22:36;3.63;;;2.40;;
14137;SDS011;8199;51.310;9.466;2023-07-29T05:25:02;2.33;;;2.10;;
14137;SDS011;8199;51.310;9.466;2023-07-29T05:27:28;2.17;;;2.00;;
14137;SDS011;8199;51.310;9.466;2023-07-29T05:29:53;4.70;;;2.50;;
14137;SDS011;8199;51.310;9.466;2023-07-29T05:32:19;2.20;;;2.00;;
14137;SDS011;8199;51.310;9.466;2023-07-29T05:34:44;2.60;;;2.08;;
14137;SDS011;8199;51.310;9.466;2023-07-29T05:37:10;6.22;;;2.10;;
14137;SDS011;8199;51.310;9.466;2023-07-29T05:39:36;1.98;;;1.73;;
14137;SDS011;8199;51.310;9.466;2023-07-29T05:42:02;5.80;;;2.03;;
14137;SDS011;8199;51.310;9.466;2023-07-29T05:44:28;4.90;;;1.67;;
14137;SDS011;8199;51.310;9.466;2023-07-29T05:46:55;2.55;;;1.77;;
14137;SDS011;8199;51.310;9.466;2023-07-29T05:49:21;5.03;;;1.77;;
14137;SDS011;8199;51.310;9.466;2023-07-29T05:51:46;6.45;;;2.03;;
14137;SDS011;8199;51.310;9.466;2023-07-29T05:54:12;13.95;;;2.20;;
14137;SDS011;8199;51.310;9.466;2023-07-29T05:56:37;4.85;;;1.70;;
14137;SDS011;8199;51.310;9.466;2023-07-29T05:59:03;16.27;;;2.45;;
14137;SDS011;8199;51.310;9.466;2023-07-29T06:01:29;11.93;;;3.58;;
14137;SDS011;8199;51.310;9.466;2023-07-29T06:03:54;9.40;;;2.25;;
14137;SDS011;8199;51.310;9.466;2023-07-29T06:06:20;8.70;;;2.70;;
14137;SDS011;8199;51.310;9.466;2023-07-29T06:08:45;7.30;;;1.92;;
14137;SDS011;8199;51.310;9.466;2023-07-29T06:11:11;9.18;;;2.35;;
14137;SDS011;8199;51.310;9.466;2023-07-29T06:13:36;9.90;;;2.20;;
14137;SDS011;8199;51.310;9.466;2023-07-29T06:16:02;9.07;;;2.80;;
14137;SDS011;8199;51.310;9.466;2023-07-29T06:18:27;4.65;;;2.38;;
14137;SDS011;8199;51.310;9.466;2023-07-29T06:20:53;8.00;;;2.50;;
14137;SDS011;8199;51.310;9.466;2023-07-29T06:23:18;9.23;;;2.53;;
14137;SDS011;8199;51.310;9.466;2023-07-29T06:25:44;10.65;;;2.55;;
14137;SDS011;8199;51.310;9.466;2023-07-29T06:28:09;12.15;;;3.20;;
14137;SDS011;8199;51.310;9.466;2023-07-29T06:30:35;14.27;;;3.28;;
14137;SDS011;8199;51.310;9.466;2023-07-29T06:33:01;12.13;;;3.05;;
14137;SDS011;8199;51.310;9.466;2023-07-29T06:35:28;10.18;;;3.20;;
14137;SDS011;8199;51.310;9.466;2023-07-29T06:37:53;7.95;;;3.45;;
14137;SDS011;8199;51.310;9.466;2023-07-29T06:40:19;13.02;;;3.22;;
14137;SDS011;8199;51.310;9.466;2023-07-29T06:42:44;8.43;;;2.70;;
14137;SDS011;8199;51.310;9.466;2023-07-29T06:45:10;8.25;;;2.80;;
14137;SDS011;8199;51.310;9.466;2023-07-29T06:47:36;4.93;;;2.92;;
14137;SDS011;8199;51.310;9.466;2023-07-29T06:50:02;6.57;;;2.83;;
14137;SDS011;8199;51.310;9.466;2023-07-29T06:52:28;5.65;;;2.85;;
14137;SDS011;8199;51.310;9.466;2023-07-29T06:54:53;4.07;;;2.80;;
14137;SDS011;8199;51.310;9.466;2023-07-29T06:57:19;7.10;;;2.70;;
14137;SDS011;8199;51.310;9.466;2023-07-29T06:59:44;6.55;;;2.60;;
14137;SDS011;8199;51.310;9.466;2023-07-29T07:02:10;5.38;;;3.03;;
14137;SDS011;8199;51.310;9.466;2023-07-29T07:04:35;6.57;;;2.85;;
14137;SDS011;8199;51.310;9.466;2023-07-29T07:07:01;4.55;;;2.60;;
14137;SDS011;8199;51.310;9.466;2023-07-29T07:09:26;4.82;;;2.50;;
14137;SDS011;8199;51.310;9.466;2023-07-29T07:11:52;3.80;;;2.33;;
14137;SDS011;8199;51.310;9.466;2023-07-29T07:14:17;3.92;;;2.17;;
14137;SDS011;8199;51.310;9.466;2023-07-29T07:16:43;3.30;;;2.10;;
14137;SDS011;8199;51.310;9.466;2023-07-29T07:19:09;7.50;;;2.33;;
14137;SDS011;8199;51.310;9.466;2023-07-29T07:21:35;6.07;;;2.17;;
14137;SDS011;8199;51.310;9.466;2023-07-29T07:24:01;3.58;;;2.22;;
14137;SDS011;8199;51.310;9.466;2023-07-29T07:26:26;5.20;;;2.38;;
14137;SDS011;8199;51.310;9.466;2023-07-29T07:28:52;5.43;;;2.53;;
14137;SDS011;8199;51.310;9.466;2023-07-29T07:31:17;5.68;;;2.67;;
14137;SDS011;8199;51.310;9.466;2023-07-29T07:33:43;6.00;;;2.70;;
14137;SDS011;8199;51.310;9.466;2023-07-29T07:36:09;9.52;;;2.97;;
14137;SDS011;8199;51.310;9.466;2023-07-29T07:38:34;4.43;;;2.83;;
14137;SDS011;8199;51.310;9.466;2023-07-29T07:41:00;4.47;;;2.78;;
14137;SDS011;8199;51.310;9.466;2023-07-29T07:43:26;5.45;;;3.25;;
14137;SDS011;8199;51.310;9.466;2023-07-29T07:45:51;3.85;;;2.60;;
14137;SDS011;8199;51.310;9.466;2023-07-29T07:48:23;5.30;;;3.08;;
14137;SDS011;8199;51.310;9.466;2023-07-29T07:50:49;2.53;;;2.30;;
14137;SDS011;8199;51.310;9.466;2023-07-29T07:53:14;4.03;;;2.63;;
14137;SDS011;8199;51.310;9.466;2023-07-29T07:55:40;5.97;;;2.53;;
14137;SDS011;8199;51.310;9.466;2023-07-29T07:58:05;3.72;;;2.60;;
14137;SDS011;8199;51.310;9.466;2023-07-29T08:00:31;3.75;;;2.38;;
14137;SDS011;8199;51.310;9.466;2023-07-29T08:02:56;3.45;;;2.47;;
14137;SDS011;8199;51.310;9.466;2023-07-29T08:05:22;2.25;;;2.05;;
14137;SDS011;8199;51.310;9.466;2023-07-29T08:07:47;3.05;;;2.85;;
14137;SDS011;8199;51.310;9.466;2023-07-29T08:10:13;5.30;;;2.35;;
14137;SDS011;8199;51.310;9.466;2023-07-29T08:12:39;7.13;;;2.53;;
14137;SDS011;8199;51.310;9.466;2023-07-29T08:15:04;3.05;;;2.42;;
14137;SDS011;8199;51.310;9.466;2023-07-29T08:17:30;3.00;;;2.10;;
14137;SDS011;8199;51.310;9.466;2023-07-29T08:19:56;2.20;;;2.00;;
14137;SDS011;8199;51.310;9.466;2023-07-29T08:22:21;5.80;;;2.90;;
14137;SDS011;8199;51.310;9.466;2023-07-29T08:24:47;4.78;;;2.33;;
14137;SDS011;8199;51.310;9.466;2023-07-29T08:27:12;3.05;;;2.33;;
14137;SDS011;8199;51.310;9.466;2023-07-29T08:29:38;2.63;;;2.13;;
14137;SDS011;8199;51.310;9.466;2023-07-29T08:32:04;2.08;;;1.73;;
14137;SDS011;8199;51.310;9.466;2023-07-29T08:34:30;3.90;;;2.33;;
14137;SDS011;8199;51.310;9.466;2023-07-29T08:36:55;2.65;;;2.28;;
14137;SDS011;8199;51.310;9.466;2023-07-29T08:39:22;5.93;;;2.78;;
14137;SDS011;8199;51.310;9.466;2023-07-29T08:42:01;3.15;;;2.40;;
14137;SDS011;8199;51.310;9.466;2023-07-29T08:44:35;2.58;;;2.13;;
14137;SDS011;8199;51.310;9.466;2023-07-29T08:47:04;3.85;;;2.35;;
14137;SDS011;8199;51.310;9.466;2023-07-29T08:49:30;4.55;;;2.33;;
14137;SDS011;8199;51.310;9.466;2023-07-29T08:51:57;2.80;;;2.05;;
14137;SDS011;8199;51.310;9.466;2023-07-29T08:54:23;3.80;;;2.30;;
14137;SDS011;8199;51.310;9.466;2023-07-29T08:56:49;2.47;;;2.08;;
14137;SDS011;8199;51.310;9.466;2023-07-29T08:59:15;3.50;;;2.55;;
14137;SDS011;8199;51.310;9.466;2023-07-29T09:01:42;2.63;;;1.95;;
14137;SDS011;8199;51.310;9.466;2023-07-29T09:04:08;4.55;;;2.45;;
14137;SDS011;8199;51.310;9.466;2023-07-29T09:06:35;3.20;;;2.10;;
14137;SDS011;8199;51.310;9.466;2023-07-29T09:09:03;5.47;;;2.00;;
14137;SDS011;8199;51.310;9.466;2023-07-29T09:11:29;6.07;;;2.10;;
14137;SDS011;8199;51.310;9.466;2023-07-29T09:13:55;2.33;;;2.13;;
14137;SDS011;8199;51.310;9.466;2023-07-29T09:16:21;4.78;;;2.35;;
14137;SDS011;8199;51.310;9.466;2023-07-29T09:18:48;3.92;;;2.40;;
14137;SDS011;8199;51.310;9.466;2023-07-29T09:21:17;3.13;;;2.05;;
14137;SDS011;8199;51.310;9.466;2023-07-29T09:23:47;3.60;;;2.35;;
14137;SDS011;8199;51.310;9.466;2023-07-29T09:26:18;4.43;;;2.25;;
14137;SDS011;8199;51.310;9.466;2023-07-29T09:28:51;2.63;;;2.38;;
14137;SDS011;8199;51.310;9.466;2023-07-29T09:31:19;5.72;;;2.28;;
14137;SDS011;8199;51.310;9.466;2023-07-29T09:33:49;3.55;;;1.83;;
14137;SDS011;8199;51.310;9.466;2023-07-29T09:36:20;5.38;;;2.25;;
14137;SDS011;8199;51.310;9.466;2023-07-29T09:38:46;3.08;;;2.13;;
14137;SDS011;8199;51.310;9.466;2023-07-29T09:41:12;3.38;;;2.50;;
14137;SDS011;8199;51.310;9.466;2023-07-29T09:43:39;2.33;;;2.08;;
14137;SDS011;8199;51.310;9.466;2023-07-29T09:46:05;3.47;;;2.30;;
14137;SDS011;8199;51.310;9.466;2023-07-29T09:48:37;3.97;;;2.10;;
14137;SDS011;8199;51.310;9.466;2023-07-29T09:51:12;4.43;;;2.20;;
14137;SDS011;8199;51.310;9.466;2023-07-29T09:53:42;3.58;;;2.20;;
14137;SDS011;8199;51.310;9.466;2023-07-29T09:56:09;2.53;;;2.17;;
14137;SDS011;8199;51.310;9.466;2023-07-29T09:58:35;3.60;;;2.10;;
14137;SDS011;8199;51.310;9.466;2023-07-29T10:01:03;4.57;;;2.28;;
14137;SDS011;8199;51.310;9.466;2023-07-29T10:03:29;2.88;;;1.90;;
14137;SDS011;8199;51.310;9.466;2023-07-29T10:05:58;3.25;;;2.80;;
14137;SDS011;8199;51.310;9.466;2023-07-29T10:08:29;3.50;;;2.97;;
14137;SDS011;8199;51.310;9.466;2023-07-29T10:10:58;4.97;;;3.10;;
14137;SDS011;8199;51.310;9.466;2023-07-29T10:13:25;8.85;;;3.60;;
14137;SDS011;8199;51.310;9.466;2023-07-29T10:15:51;14.80;;;3.90;;
14137;SDS011;8199;51.310;9.466;2023-07-29T10:18:21;8.80;;;3.15;;
14137;SDS011;8199;51.310;9.466;2023-07-29T10:20:48;5.95;;;3.17;;
14137;SDS011;8199;51.310;9.466;2023-07-29T10:23:17;11.70;;;3.60;;
14137;SDS011;8199;51.310;9.466;2023-07-29T10:25:49;8.15;;;3.60;;
14137;SDS011;8199;51.310;9.466;2023-07-29T10:28:20;9.32;;;4.20;;
14137;SDS011;8199;51.310;9.466;2023-07-29T10:30:50;7.43;;;3.53;;
14137;SDS011;8199;51.310;9.466;2023-07-29T10:33:16;9.68;;;3.90;;
14137;SDS011;8199;51.310;9.466;2023-07-29T10:35:42;9.25;;;3.75;;
14137;SDS011;8199;51.310;9.466;2023-07-29T10:38:07;7.95;;;3.40;;
14137;SDS011;8199;51.310;9.466;2023-07-29T10:40:46;12.30;;;4.22;;
14137;SDS011;8199;51.310;9.466;2023-07-29T10:46:14;6.88;;;3.65;;
14137;SDS011;8199;51.310;9.466;2023-07-29T10:51:21;6.43;;;3.60;;
14137;SDS011;8199;51.310;9.466;2023-07-29T10:53:54;5.95;;;3.53;;
14137;SDS011;8199;51.310;9.466;2023-07-29T10:56:34;6.10;;;3.55;;
14137;SDS011;8199;51.310;9.466;2023-07-29T11:01:41;7.78;;;3.40;;
14137;SDS011;8199;51.310;9.466;2023-07-29T11:17:55;8.48;;;3.53;;
14137;SDS011;8199;51.310;9.466;2023-07-29T11:22:52;5.72;;;3.35;;
14137;SDS011;8199;51.310;9.466;2023-07-29T11:25:20;4.45;;;3.00;;
14137;SDS011;8199;51.310;9.466;2023-07-29T11:27:47;4.00;;;3.13;;
14137;SDS011;8199;51.310;9.466;2023-07-29T11:30:13;4.93;;;3.08;;
14137;SDS011;8199;51.310;9.466;2023-07-29T11:32:40;4.57;;;2.97;;
14137;SDS011;8199;51.310;9.466;2023-07-29T11:35:08;3.58;;;3.10;;
14137;SDS011;8199;51.310;9.466;2023-07-29T11:37:36;3.65;;;3.05;;
14137;SDS011;8199;51.310;9.466;2023-07-29T11:40:03;4.47;;;3.10;;
14137;SDS011;8199;51.310;9.466;2023-07-29T11:42:31;6.82;;;3.42;;
14137;SDS011;8199;51.310;9.466;2023-07-29T11:44:57;5.75;;;3.38;;
14137;SDS011;8199;51.310;9.466;2023-07-29T11:47:23;4.10;;;3.22;;
14137;SDS011;8199;51.310;9.466;2023-07-29T11:49:49;3.88;;;3.25;;
14137;SDS011;8199;51.310;9.466;2023-07-29T11:52:15;5.07;;;3.33;;
14137;SDS011;8199;51.310;9.466;2023-07-29T11:54:44;9.10;;;4.03;;
14137;SDS011;8199;51.310;9.466;2023-07-29T11:57:10;8.05;;;5.05;;
14137;SDS011;8199;51.310;9.466;2023-07-29T11:59:36;5.72;;;5.10;;
14137;SDS011;8199;51.310;9.466;2023-07-29T12:02:06;10.23;;;6.45;;
14137;SDS011;8199;51.310;9.466;2023-07-29T12:04:37;9.00;;;6.60;;
14137;SDS011;8199;51.310;9.466;2023-07-29T12:07:03;13.07;;;7.20;;
14137;SDS011;8199;51.310;9.466;2023-07-29T12:09:30;11.57;;;6.40;;
14137;SDS011;8199;51.310;9.466;2023-07-29T12:11:55;6.90;;;5.50;;
14137;SDS011;8199;51.310;9.466;2023-07-29T12:14:21;18.17;;;8.00;;
14137;SDS011;8199;51.310;9.466;2023-07-29T12:16:50;13.95;;;8.13;;
14137;SDS011;8199;51.310;9.466;2023-07-29T12:19:17;13.80;;;6.88;;
14137;SDS011;8199;51.310;9.466;2023-07-29T12:21:43;9.60;;;7.00;;
14137;SDS011;8199;51.310;9.466;2023-07-29T12:24:12;16.15;;;9.02;;
14137;SDS011;8199;51.310;9.466;2023-07-29T12:26:38;14.60;;;8.63;;
14137;SDS011;8199;51.310;9.466;2023-07-29T12:29:14;17.42;;;8.82;;
14137;SDS011;8199;51.310;9.466;2023-07-29T12:31:41;14.65;;;8.35;;
14137;SDS011;8199;51.310;9.466;2023-07-29T12:34:07;14.27;;;9.07;;
14137;SDS011;8199;51.310;9.466;2023-07-29T12:36:43;14.43;;;9.43;;
14137;SDS011;8199;51.310;9.466;2023-07-29T12:39:23;15.93;;;9.18;;
14137;SDS011;8199;51.310;9.466;2023-07-29T12:41:54;15.90;;;8.65;;
14137;SDS011;8199;51.310;9.466;2023-07-29T12:44:24;14.63;;;8.73;;
14137;SDS011;8199;51.310;9.466;2023-07-29T12:46:52;14.98;;;9.30;;
14137;SDS011;8199;51.310;9.466;2023-07-29T12:49:17;16.13;;;9.15;;
14137;SDS011;8199;51.310;9.466;2023-07-29T12:51:43;15.40;;;9.10;;
14137;SDS011;8199;51.310;9.466;2023-07-29T12:54:10;16.17;;;9.68;;
14137;SDS011;8199;51.310;9.466;2023-07-29T12:56:35;15.15;;;8.85;;
14137;SDS011;8199;51.310;9.466;2023-07-29T12:59:01;10.60;;;8.52;;
14137;SDS011;8199;51.310;9.466;2023-07-29T13:01:27;12.85;;;9.02;;
14137;SDS011;8199;51.310;9.466;2023-07-29T13:03:53;11.00;;;8.80;;
14137;SDS011;8199;51.310;9.466;2023-07-29T13:06:19;11.35;;;8.75;;
14137;SDS011;8199;51.310;9.466;2023-07-29T13:08:47;12.18;;;9.05;;
14137;SDS011;8199;51.310;9.466;2023-07-29T13:11:13;12.48;;;8.98;;
14137;SDS011;8199;51.310;9.466;2023-07-29T13:13:39;13.63;;;9.18;;
14137;SDS011;8199;51.310;9.466;2023-07-29T13:16:05;12.70;;;8.70;;
14137;SDS011;8199;51.310;9.466;2023-07-29T13:18:31;12.80;;;9.32;;
14137;SDS011;8199;51.310;9.466;2023-07-29T13:20:57;12.40;;;9.10;;
14137;SDS011;8199;51.310;9.466;2023-07-29T13:23:23;14.60;;;10.18;;
14137;SDS011;8199;51.310;9.466;2023-07-29T13:25:49;12.52;;;9.10;;
14137;SDS011;8199;51.310;9.466;2023-07-29T13:28:15;12.27;;;8.70;;
14137;SDS011;8199;51.310;9.466;2023-07-29T13:30:41;13.65;;;9.55;;
14137;SDS011;8199;51.310;9.466;2023-07-29T13:33:07;12.07;;;8.80;;
14137;SDS011;8199;51.310;9.466;2023-07-29T13:35:33;11.02;;;8.65;;
14137;SDS011;8199;51.310;9.466;2023-07-29T13:38:00;12.75;;;9.23;;
14137;SDS011;8199;51.310;9.466;2023-07-29T13:40:25;10.18;;;8.85;;
14137;SDS011;8199;51.310;9.466;2023-07-29T13:42:51;12.18;;;9.10;;
14137;SDS011;8199;51.310;9.466;2023-07-29T13:45:17;11.27;;;9.20;;
14137;SDS011;8199;51.310;9.466;2023-07-29T13:47:43;11.18;;;8.93;;
14137;SDS011;8199;51.310;9.466;2023-07-29T13:50:09;10.73;;;8.90;;
14137;SDS011;8199;51.310;9.466;2023-07-29T13:52:36;11.73;;;9.10;;
14137;SDS011;8199;51.310;9.466;2023-07-29T13:55:02;15.27;;;11.27;;
14137;SDS011;8199;51.310;9.466;2023-07-29T13:57:29;13.88;;;10.50;;
14137;SDS011;8199;51.310;9.466;2023-07-29T13:59:54;14.50;;;10.45;;
14137;SDS011;8199;51.310;9.466;2023-07-29T14:02:20;15.82;;;10.48;;
14137;SDS011;8199;51.310;9.466;2023-07-29T14:04:46;14.50;;;10.15;;
14137;SDS011;8199;51.310;9.466;2023-07-29T14:07:11;12.40;;;9.55;;
14137;SDS011;8199;51.310;9.466;2023-07-29T14:09:37;10.85;;;9.45;;
14137;SDS011;8199;51.310;9.466;2023-07-29T14:12:03;13.27;;;9.77;;
14137;SDS011;8199;51.310;9.466;2023-07-29T14:14:30;10.95;;;9.45;;
14137;SDS011;8199;51.310;9.466;2023-07-29T14:16:55;12.07;;;10.70;;
14137;SDS011;8199;51.310;9.466;2023-07-29T14:19:21;13.27;;;10.93;;
14137;SDS011;8199;51.310;9.466;2023-07-29T14:21:47;11.75;;;10.32;;
14137;SDS011;8199;51.310;9.466;2023-07-29T14:24:13;10.85;;;9.73;;
14137;SDS011;8199;51.310;9.466;2023-07-29T14:26:40;11.02;;;9.93;;
14137;SDS011;8199;51.310;9.466;2023-07-29T14:29:06;16.90;;;11.25;;
14137;SDS011;8199;51.310;9.466;2023-07-29T14:31:31;11.30;;;9.93;;
14137;SDS011;8199;51.310;9.466;2023-07-29T14:33:57;12.02;;;10.52;;
14137;SDS011;8199;51.310;9.466;2023-07-29T14:36:23;12.10;;;10.02;;
14137;SDS011;8199;51.310;9.466;2023-07-29T14:38:49;14.90;;;10.20;;
14137;SDS011;8199;51.310;9.466;2023-07-29T14:41:14;10.38;;;9.10;;
14137;SDS011;8199;51.310;9.466;2023-07-29T14:43:40;12.93;;;9.82;;
14137;SDS011;8199;51.310;9.466;2023-07-29T14:46:05;10.32;;;9.20;;
14137;SDS011;8199;51.310;9.466;2023-07-29T14:48:31;12.43;;;8.98;;
14137;SDS011;8199;51.310;9.466;2023-07-29T14:50:57;13.40;;;8.77;;
14137;SDS011;8199;51.310;9.466;2023-07-29T14:53:22;9.38;;;8.27;;
14137;SDS011;8199;51.310;9.466;2023-07-29T14:55:48;10.00;;;8.25;;
14137;SDS011;8199;51.310;9.466;2023-07-29T14:58:14;9.65;;;8.68;;
14137;SDS011;8199;51.310;9.466;2023-07-29T15:00:40;9.48;;;7.88;;
14137;SDS011;8199;51.310;9.466;2023-07-29T15:03:06;9.43;;;8.20;;
14137;SDS011;8199;51.310;9.466;2023-07-29T15:05:32;8.68;;;7.18;;
14137;SDS011;8199;51.310;9.466;2023-07-29T15:07:58;8.55;;;7.63;;
14137;SDS011;8199;51.310;9.466;2023-07-29T15:10:23;10.18;;;8.43;;
14137;SDS011;8199;51.310;9.466;2023-07-29T15:12:49;10.25;;;7.72;;
14137;SDS011;8199;51.310;9.466;2023-07-29T15:15:14;8.68;;;7.60;;
14137;SDS011;8199;51.310;9.466;2023-07-29T15:17:40;10.57;;;7.68;;
14137;SDS011;8199;51.310;9.466;2023-07-29T15:20:06;9.77;;;7.70;;
14137;SDS011;8199;51.310;9.466;2023-07-29T15:22:32;8.48;;;7.68;;
14137;SDS011;8199;51.310;9.466;2023-07-29T15:24:57;8.25;;;7.38;;
14137;SDS011;8199;51.310;9.466;2023-07-29T15:27:27;8.45;;;7.60;;
14137;SDS011;8199;51.310;9.466;2023-07-29T15:29:53;7.93;;;6.72;;